createdAt,value
2018-05-17T00:01:45.762Z,90.90
2018-05-17T00:04:13.275Z,91.30
2018-05-17T00:06:40.781Z,90.90
2018-05-17T00:09:08.311Z,90.30
2018-05-17T00:11:36.295Z,91.10
2018-05-17T00:14:03.889Z,91.10
2018-05-17T00:16:31.383Z,90.60
2018-05-17T00:18:59.308Z,90.90
2018-05-17T00:21:26.798Z,90.90
2018-05-17T00:23:54.359Z,90.90
2018-05-17T00:26:21.910Z,90.60
2018-05-17T00:28:49.490Z,90.10
2018-05-17T00:31:16.999Z,91.00
2018-05-17T00:33:44.890Z,91.40
2018-05-17T00:36:12.821Z,91.20
2018-05-17T00:38:40.314Z,91.20
2018-05-17T00:41:07.839Z,89.50
2018-05-17T00:43:35.341Z,88.70
2018-05-17T00:46:03.259Z,89.70
2018-05-17T00:48:30.755Z,89.80
2018-05-17T00:50:58.268Z,90.10
2018-05-17T00:53:31.732Z,90.70
2018-05-17T00:55:59.703Z,89.60
2018-05-17T00:58:27.227Z,89.60
2018-05-17T01:00:54.802Z,89.70
2018-05-17T01:03:22.319Z,89.70
2018-05-17T01:05:49.819Z,89.80
2018-05-17T01:08:17.326Z,90.40
2018-05-17T01:10:44.814Z,90.30
2018-05-17T01:13:12.743Z,88.80
2018-05-17T01:15:40.238Z,88.80
2018-05-17T01:18:07.739Z,88.80
2018-05-17T01:20:35.255Z,89.30
2018-05-17T01:23:03.234Z,88.60
2018-05-17T01:25:30.777Z,88.60
2018-05-17T01:27:58.288Z,88.20
2018-05-17T01:30:25.812Z,89.20
2018-05-17T01:32:53.325Z,89.50
2018-05-17T01:35:20.851Z,88.50
2018-05-17T01:38:00.403Z,89.20
2018-05-17T01:40:27.913Z,88.90
2018-05-17T01:42:55.810Z,88.20
2018-05-17T01:45:23.813Z,88.50
2018-05-17T01:47:51.820Z,88.30
2018-05-17T01:50:19.366Z,88.30
2018-05-17T01:52:46.887Z,87.90
2018-05-17T01:55:14.395Z,88.90
2018-05-17T01:57:41.928Z,89.40
2018-05-17T02:00:09.836Z,88.30
2018-05-17T02:02:37.737Z,88.80
2018-05-17T02:05:05.296Z,88.80
2018-05-17T02:07:32.812Z,89.50
2018-05-17T02:10:00.311Z,89.10
2018-05-17T02:12:27.841Z,88.60
2018-05-17T02:14:55.431Z,88.90
2018-05-17T02:17:22.936Z,87.90
2018-05-17T02:19:50.506Z,87.90
2018-05-17T02:22:18.400Z,88.50
2018-05-17T02:24:46.316Z,88.60
2018-05-17T02:27:13.809Z,88.60
2018-05-17T02:29:41.323Z,89.20
2018-05-17T02:32:08.819Z,89.80
2018-05-17T02:34:36.338Z,90.10
2018-05-17T02:37:03.840Z,90.10
2018-05-17T02:39:31.368Z,90.10
2018-05-17T02:41:58.861Z,90.10
2018-05-17T02:44:26.455Z,89.80
2018-05-17T02:46:53.967Z,90.30
2018-05-17T02:49:21.475Z,89.90
2018-05-17T02:51:49.008Z,89.90
2018-05-17T02:54:16.505Z,89.60
2018-05-17T02:56:44.421Z,89.70
2018-05-17T02:59:11.928Z,89.70
2018-05-17T03:01:39.447Z,89.80
2018-05-17T03:04:06.938Z,89.40
2018-05-17T03:06:34.941Z,90.00
2018-05-17T03:09:02.846Z,89.80
2018-05-17T03:11:30.367Z,89.80
2018-05-17T03:13:57.859Z,89.60
2018-05-17T03:16:25.454Z,89.40
2018-05-17T03:18:53.046Z,90.00
2018-05-17T03:21:20.538Z,90.10
2018-05-17T03:23:48.049Z,90.00
2018-05-17T03:26:15.550Z,90.50
2018-05-17T03:28:43.087Z,90.60
2018-05-17T03:31:10.675Z,90.60
2018-05-17T03:33:38.597Z,90.20
2018-05-17T03:36:06.081Z,90.20
2018-05-17T03:38:33.587Z,89.90
2018-05-17T03:41:01.118Z,90.00
2018-05-17T03:43:28.631Z,90.80
2018-05-17T03:45:56.130Z,90.10
2018-05-17T03:48:23.660Z,89.90
2018-05-17T03:50:51.215Z,90.00
2018-05-17T03:53:18.733Z,90.00
2018-05-17T03:55:46.247Z,89.80
2018-05-17T03:58:13.745Z,89.80
2018-05-17T04:00:53.272Z,89.70
2018-05-17T04:03:32.729Z,88.90
2018-05-17T04:06:12.108Z,89.30
2018-05-17T04:08:40.119Z,90.00
2018-05-17T04:11:07.539Z,90.00
2018-05-17T04:13:35.034Z,89.70
2018-05-17T04:16:02.547Z,89.20
2018-05-17T04:18:30.444Z,88.60
2018-05-17T04:20:58.356Z,88.70
2018-05-17T04:23:25.841Z,88.70
2018-05-17T04:25:54.335Z,87.60
2018-05-17T04:28:22.222Z,87.30
2018-05-17T04:30:50.197Z,88.10
2018-05-17T04:33:17.695Z,88.10
2018-05-17T04:35:45.198Z,87.60
2018-05-17T04:38:13.087Z,87.10
2018-05-17T04:40:40.999Z,87.20
2018-05-17T04:43:08.543Z,87.20
2018-05-17T04:45:36.123Z,87.00
2018-05-17T04:48:03.623Z,87.20
2018-05-17T04:50:31.608Z,87.80
2018-05-17T04:52:59.622Z,87.40
2018-05-17T04:55:27.534Z,86.90
2018-05-17T04:57:55.018Z,86.90
2018-05-17T05:00:22.524Z,87.20
2018-05-17T05:02:50.036Z,86.70
2018-05-17T05:05:17.627Z,87.40
2018-05-17T05:07:45.147Z,87.20
2018-05-17T05:10:12.692Z,88.00
2018-05-17T05:12:40.283Z,88.00
2018-05-17T05:15:07.788Z,87.70
2018-05-17T05:17:35.306Z,88.10
2018-05-17T05:20:02.836Z,88.00
2018-05-17T05:22:30.828Z,88.30
2018-05-17T05:24:58.336Z,88.30
2018-05-17T05:27:25.894Z,88.70
2018-05-17T05:29:53.479Z,88.90
2018-05-17T05:32:21.068Z,88.70
2018-05-17T05:34:48.583Z,88.00
2018-05-17T05:37:16.131Z,87.20
2018-05-17T05:39:43.651Z,88.00
2018-05-17T05:42:11.206Z,87.80
2018-05-17T05:44:39.130Z,88.40
2018-05-17T05:47:06.636Z,88.40
2018-05-17T05:49:34.252Z,88.70
2018-05-17T05:52:01.749Z,88.30
2018-05-17T05:54:29.264Z,88.10
2018-05-17T05:56:56.782Z,87.60
2018-05-17T05:59:24.290Z,88.00
2018-05-17T06:01:51.794Z,85.30
2018-05-17T06:04:19.714Z,84.90
2018-05-17T06:06:47.254Z,84.90
2018-05-17T06:09:14.751Z,84.50
2018-05-17T06:11:42.662Z,83.20
2018-05-17T06:14:10.177Z,83.20
2018-05-17T06:16:37.690Z,83.40
2018-05-17T06:19:05.187Z,83.20
2018-05-17T06:21:33.180Z,81.90
2018-05-17T06:24:01.091Z,82.70
2018-05-17T06:26:29.003Z,83.20
2018-05-17T06:28:56.507Z,83.20
2018-05-17T06:31:24.035Z,82.70
2018-05-17T06:33:52.039Z,82.70
2018-05-17T06:36:19.606Z,82.70
2018-05-17T06:38:47.204Z,83.70
2018-05-17T06:41:15.191Z,83.70
2018-05-17T06:43:42.801Z,83.70
2018-05-17T06:46:10.323Z,83.60
2018-05-17T06:48:37.839Z,82.70
2018-05-17T06:51:05.360Z,83.60
2018-05-17T06:53:32.863Z,83.00
2018-05-17T06:56:00.387Z,84.20
2018-05-17T06:58:27.974Z,82.90
2018-05-17T07:00:55.545Z,82.30
2018-05-17T07:03:23.016Z,81.90
2018-05-17T07:05:50.630Z,81.80
2018-05-17T07:08:18.228Z,81.70
2018-05-17T07:10:46.143Z,81.40
2018-05-17T07:13:13.637Z,81.40
2018-05-17T07:15:41.188Z,81.10
2018-05-17T07:18:09.195Z,80.00
2018-05-17T07:20:36.621Z,80.00
2018-05-17T07:23:04.123Z,81.30
2018-05-17T07:25:31.626Z,78.00
2018-05-17T07:27:59.534Z,77.60
2018-05-17T07:30:27.438Z,77.60
2018-05-17T07:32:55.407Z,78.00
2018-05-17T07:35:22.933Z,78.00
2018-05-17T07:37:50.434Z,77.90
2018-05-17T07:40:17.960Z,78.00
2018-05-17T07:42:45.534Z,77.40
2018-05-17T07:45:13.047Z,77.50
2018-05-17T07:47:40.575Z,78.20
2018-05-17T07:50:08.070Z,76.80
2018-05-17T07:52:35.677Z,77.40
2018-05-17T07:55:03.578Z,78.00
2018-05-17T07:57:31.550Z,77.20
2018-05-17T07:59:59.033Z,77.20
2018-05-17T08:02:26.574Z,75.90
2018-05-17T08:04:54.120Z,75.10
2018-05-17T08:07:22.099Z,75.20
2018-05-17T08:09:49.585Z,75.20
2018-05-17T08:12:17.095Z,74.80
2018-05-17T08:14:44.597Z,74.20
2018-05-17T08:17:12.135Z,72.50
2018-05-17T08:19:39.635Z,72.20
2018-05-17T08:22:07.547Z,74.10
2018-05-17T08:24:35.090Z,74.10
2018-05-17T08:27:02.674Z,73.60
2018-05-17T08:29:30.166Z,71.40
2018-05-17T08:31:57.687Z,71.40
2018-05-17T08:34:25.179Z,72.00
2018-05-17T08:36:52.691Z,72.50
2018-05-17T08:39:20.192Z,71.30
2018-05-17T08:41:47.778Z,72.00
2018-05-17T08:44:15.261Z,71.20
2018-05-17T08:46:42.842Z,70.80
2018-05-17T08:49:10.356Z,69.90
2018-05-17T08:51:38.332Z,69.00
2018-05-17T08:54:05.817Z,69.00
2018-05-17T08:56:33.751Z,68.00
2018-05-17T08:59:01.303Z,68.00
2018-05-17T09:01:29.211Z,67.90
2018-05-17T09:03:56.703Z,67.80
2018-05-17T09:06:24.237Z,66.50
2018-05-17T09:08:51.746Z,66.70
2018-05-17T09:11:19.726Z,65.50
2018-05-17T09:13:47.318Z,65.50
2018-05-17T09:16:15.294Z,64.70
2018-05-17T09:18:42.793Z,64.70
2018-05-17T09:21:10.686Z,65.70
2018-05-17T09:23:38.582Z,68.10
2018-05-17T09:26:06.470Z,65.40
2018-05-17T09:28:34.383Z,66.10
2018-05-17T09:31:01.883Z,66.00
2018-05-17T09:33:29.394Z,68.10
2018-05-17T09:35:56.892Z,68.30
2018-05-17T09:38:24.404Z,67.80
2018-05-17T09:40:51.917Z,66.90
2018-05-17T09:43:19.443Z,66.80
2018-05-17T09:45:47.063Z,65.50
2018-05-17T09:48:14.590Z,64.30
2018-05-17T09:50:42.078Z,64.30
2018-05-17T09:53:09.601Z,65.10
2018-05-17T09:55:37.489Z,65.10
2018-05-17T09:58:05.475Z,64.00
2018-05-17T10:00:33.942Z,64.90
2018-05-17T10:03:01.456Z,65.00
2018-05-17T10:05:28.954Z,66.20
2018-05-17T10:07:56.854Z,64.30
2018-05-17T10:10:24.752Z,64.40
2018-05-17T10:12:52.274Z,64.40
2018-05-17T10:15:19.774Z,64.20
2018-05-17T10:17:47.287Z,63.50
2018-05-17T10:20:15.176Z,63.50
2018-05-17T10:22:43.083Z,64.80
2018-05-17T10:25:10.968Z,62.70
2018-05-17T10:27:38.942Z,62.20
2018-05-17T10:30:06.425Z,62.20
2018-05-17T10:32:33.945Z,62.70
2018-05-17T10:35:01.458Z,62.80
2018-05-17T10:37:28.951Z,62.10
2018-05-17T10:39:56.467Z,63.20
2018-05-17T10:42:23.958Z,63.20
2018-05-17T10:44:51.867Z,64.10
2018-05-17T10:47:19.844Z,63.90
2018-05-17T10:49:47.752Z,63.00
2018-05-17T10:52:15.650Z,62.90
2018-05-17T10:54:43.216Z,62.90
2018-05-17T10:57:11.102Z,63.20
2018-05-17T10:59:38.682Z,63.20
2018-05-17T11:02:06.175Z,61.90
2018-05-17T11:04:34.079Z,61.20
2018-05-17T11:07:01.991Z,62.10
2018-05-17T11:09:29.503Z,62.10
2018-05-17T11:11:57.014Z,60.70
2018-05-17T11:14:24.605Z,64.10
2018-05-17T11:16:52.600Z,61.00
2018-05-17T11:19:20.512Z,62.70
2018-05-17T11:21:48.409Z,59.30
2018-05-17T11:24:15.968Z,59.30
2018-05-17T11:26:43.458Z,60.50
2018-05-17T11:29:11.354Z,60.60
2018-05-17T11:31:39.239Z,59.30
2018-05-17T11:34:06.753Z,59.30
2018-05-17T11:36:34.256Z,59.40
2018-05-17T11:39:01.773Z,59.80
2018-05-17T11:41:29.273Z,60.70
2018-05-17T11:43:57.175Z,61.00
2018-05-17T11:46:25.059Z,59.60
2018-05-17T11:48:52.953Z,60.20
2018-05-17T11:51:20.834Z,58.70
2018-05-17T11:53:48.423Z,58.70
2018-05-17T11:56:16.003Z,59.30
2018-05-17T11:58:43.615Z,60.50
2018-05-17T12:01:11.495Z,56.90
2018-05-17T12:03:39.016Z,56.90
2018-05-17T12:06:06.507Z,59.70
2018-05-17T12:08:34.035Z,61.00
2018-05-17T12:11:01.548Z,62.00
2018-05-17T12:13:29.101Z,60.30
2018-05-17T12:15:56.683Z,58.40
2018-05-17T12:18:24.272Z,60.60
2018-05-17T12:20:51.809Z,59.70
2018-05-17T12:23:19.299Z,58.30
2018-05-17T12:25:46.842Z,59.50
2018-05-17T12:28:14.721Z,60.30
2018-05-17T12:30:42.295Z,60.30
2018-05-17T12:33:09.788Z,60.40
2018-05-17T12:35:37.289Z,59.90
2018-05-17T12:38:05.171Z,59.00
2018-05-17T12:40:33.152Z,59.20
2018-05-17T12:43:00.736Z,59.20
2018-05-17T12:45:28.247Z,59.80
2018-05-17T12:47:55.735Z,56.00
2018-05-17T12:50:23.288Z,55.50
2018-05-17T12:52:50.765Z,56.10
2018-05-17T12:55:18.272Z,57.70
2018-05-17T12:57:46.156Z,58.80
2018-05-17T13:00:14.068Z,57.60
2018-05-17T13:02:41.555Z,57.60
2018-05-17T13:05:13.695Z,58.40
2018-05-17T13:07:41.186Z,59.30
2018-05-17T13:10:08.802Z,60.40
2018-05-17T13:12:36.674Z,59.00
2018-05-17T13:15:04.261Z,59.00
2018-05-17T13:17:32.149Z,57.60
2018-05-17T13:19:59.723Z,57.60
2018-05-17T13:22:27.214Z,57.70
2018-05-17T13:24:54.870Z,58.20
2018-05-17T13:27:22.703Z,58.40
2018-05-17T13:29:50.607Z,57.40
2018-05-17T13:32:18.491Z,58.30
2018-05-17T13:34:46.471Z,57.70
2018-05-17T13:37:14.380Z,56.70
2018-05-17T13:39:42.261Z,58.00
2018-05-17T13:42:09.772Z,58.00
2018-05-17T13:44:37.260Z,57.20
2018-05-17T13:47:04.784Z,58.00
2018-05-17T13:49:32.287Z,58.00
2018-05-17T13:51:59.798Z,57.20
2018-05-17T13:54:27.675Z,56.00
2018-05-17T13:56:55.179Z,56.00
2018-05-17T13:59:22.736Z,57.30
2018-05-17T14:01:50.272Z,57.50
2018-05-17T14:04:17.799Z,57.10
2018-05-17T14:06:45.312Z,57.50
2018-05-17T14:09:12.816Z,56.70
2018-05-17T14:11:40.328Z,57.00
2018-05-17T14:14:07.817Z,55.50
2018-05-17T14:16:35.416Z,56.20
2018-05-17T14:19:02.916Z,57.30
2018-05-17T14:21:30.886Z,56.80
2018-05-17T14:23:58.392Z,56.80
2018-05-17T14:26:26.366Z,56.70
2018-05-17T14:28:53.970Z,56.80
2018-05-17T14:31:21.878Z,55.00
2018-05-17T14:33:49.388Z,55.00
2018-05-17T14:36:16.909Z,56.00
2018-05-17T14:38:44.560Z,56.40
2018-05-17T14:41:12.436Z,56.20
2018-05-17T14:43:39.987Z,56.20
2018-05-17T14:46:08.006Z,56.70
2018-05-17T14:48:35.872Z,56.60
2018-05-17T14:51:03.451Z,56.60
2018-05-17T14:53:30.963Z,56.50
2018-05-17T14:55:58.927Z,55.30
2018-05-17T14:58:26.412Z,55.20
2018-05-17T15:00:53.999Z,56.30
2018-05-17T15:03:21.505Z,55.50
2018-05-17T15:05:49.479Z,55.70
2018-05-17T15:08:17.054Z,55.70
2018-05-17T15:10:44.534Z,55.00
2018-05-17T15:13:12.131Z,56.70
2018-05-17T15:15:39.623Z,57.00
2018-05-17T15:18:07.518Z,56.30
2018-05-17T15:20:35.399Z,56.50
2018-05-17T15:23:02.907Z,56.50
2018-05-17T15:25:30.874Z,56.10
2018-05-17T15:27:58.375Z,56.10
2018-05-17T15:30:26.259Z,56.40
2018-05-17T15:32:53.833Z,56.40
2018-05-17T15:35:21.313Z,55.80
2018-05-17T15:37:48.819Z,55.80
2018-05-17T15:40:16.796Z,56.90
2018-05-17T15:42:44.298Z,56.90
2018-05-17T15:45:12.179Z,55.70
2018-05-17T15:47:40.086Z,55.90
2018-05-17T15:50:08.049Z,56.40
2018-05-17T15:52:35.558Z,56.40
2018-05-17T15:55:03.531Z,56.20
2018-05-17T15:57:31.039Z,56.20
2018-05-17T15:59:58.924Z,55.70
2018-05-17T16:02:26.814Z,55.30
2018-05-17T16:04:54.699Z,56.00
2018-05-17T16:07:22.611Z,55.50
2018-05-17T16:09:50.157Z,55.50
2018-05-17T16:12:17.766Z,55.30
2018-05-17T16:14:45.882Z,55.90
2018-05-17T16:17:13.659Z,56.10
2018-05-17T16:19:41.539Z,55.70
2018-05-17T16:22:09.223Z,55.70
2018-05-17T16:24:36.711Z,56.30
2018-05-17T16:27:04.635Z,56.70
2018-05-17T16:29:32.179Z,56.80
2018-05-17T16:31:59.687Z,56.50
2018-05-17T16:34:27.175Z,56.10
2018-05-17T16:36:54.697Z,56.50
2018-05-17T16:39:22.231Z,55.30
2018-05-17T16:41:50.311Z,55.80
2018-05-17T16:44:17.823Z,55.80
2018-05-17T16:46:45.325Z,56.10
2018-05-17T16:49:12.835Z,55.90
2018-05-17T16:51:40.323Z,55.20
2018-05-17T16:54:08.006Z,55.50
2018-05-17T16:56:35.829Z,55.50
2018-05-17T16:59:03.730Z,55.20
2018-05-17T17:01:31.706Z,55.40
2018-05-17T17:03:59.699Z,55.30
2018-05-17T17:06:27.275Z,55.30
2018-05-17T17:08:54.819Z,55.70
2018-05-17T17:11:22.296Z,55.60
2018-05-17T17:13:49.826Z,55.80
2018-05-17T17:16:17.331Z,56.30
2018-05-17T17:18:45.238Z,56.40
2018-05-17T17:21:12.735Z,56.40
2018-05-17T17:23:40.271Z,57.00
2018-05-17T17:26:07.979Z,57.60
2018-05-17T17:28:35.893Z,57.90
2018-05-17T17:31:03.391Z,57.90
2018-05-17T17:33:30.919Z,58.20
2018-05-17T17:35:58.416Z,58.20
2018-05-17T17:38:26.322Z,58.20
2018-05-17T17:40:54.228Z,58.40
2018-05-17T17:43:21.848Z,58.40
2018-05-17T17:45:49.379Z,59.00
2018-05-17T17:48:17.311Z,59.60
2018-05-17T17:50:46.725Z,59.60
2018-05-17T17:53:14.291Z,59.80
2018-05-17T17:55:41.782Z,59.90
2018-05-17T17:58:09.291Z,60.20
2018-05-17T18:00:36.815Z,60.50
2018-05-17T18:03:04.321Z,60.60
2018-05-17T18:05:31.957Z,61.00
2018-05-17T18:07:59.594Z,61.20
2018-05-17T18:10:27.512Z,61.90
2018-05-17T18:12:55.049Z,61.90
2018-05-17T18:15:22.560Z,61.90
2018-05-17T18:17:51.031Z,62.30
2018-05-17T18:20:18.542Z,62.80
2018-05-17T18:22:46.435Z,63.20
2018-05-17T18:25:14.431Z,63.50
2018-05-17T18:27:42.406Z,63.90
2018-05-17T18:30:10.044Z,63.90
2018-05-17T18:32:37.591Z,63.90
2018-05-17T18:35:05.574Z,64.60
2018-05-17T18:37:33.496Z,64.50
2018-05-17T18:40:01.035Z,64.50
2018-05-17T18:42:28.523Z,64.60
2018-05-17T18:44:56.169Z,65.20
2018-05-17T18:47:23.584Z,65.40
2018-05-17T18:49:51.087Z,65.50
2018-05-17T18:52:19.042Z,66.20
2018-05-17T18:54:46.655Z,66.20
2018-05-17T18:57:14.151Z,66.20
2018-05-17T18:59:42.063Z,66.50
2018-05-17T19:02:10.040Z,66.60
2018-05-17T19:04:37.492Z,66.60
2018-05-17T19:07:04.991Z,66.60
2018-05-17T19:09:32.512Z,66.90
2018-05-17T19:12:00.036Z,67.40
2018-05-17T19:14:27.540Z,67.50
2018-05-17T19:16:55.031Z,67.50
2018-05-17T19:19:23.013Z,67.80
2018-05-17T19:21:50.503Z,67.80
2018-05-17T19:24:18.187Z,68.00
2018-05-17T19:26:45.769Z,68.20
2018-05-17T19:29:13.369Z,68.70
2018-05-17T19:31:40.903Z,68.60
2018-05-17T19:34:08.398Z,68.90
2018-05-17T19:36:35.887Z,69.20
2018-05-17T19:39:03.392Z,69.10
2018-05-17T19:41:30.911Z,69.40
2018-05-17T19:43:58.413Z,69.40
2018-05-17T19:46:25.921Z,69.70
2018-05-17T19:48:53.415Z,69.80
2018-05-17T19:51:20.923Z,70.40
2018-05-17T19:53:48.810Z,70.60
2018-05-17T19:56:16.328Z,70.60
2018-05-17T19:58:43.823Z,70.70
2018-05-17T20:01:11.355Z,71.10
2018-05-17T20:03:38.855Z,71.00
2018-05-17T20:06:06.829Z,71.70
2018-05-17T20:08:34.318Z,71.70
2018-05-17T20:11:01.831Z,71.70
2018-05-17T20:13:29.330Z,71.80
2018-05-17T20:15:56.834Z,72.20
2018-05-17T20:18:24.318Z,72.30
2018-05-17T20:20:51.930Z,72.40
2018-05-17T20:23:19.427Z,72.70
2018-05-17T20:25:47.414Z,73.10
2018-05-17T20:28:14.930Z,73.10
2018-05-17T20:30:42.430Z,73.40
2018-05-17T20:33:09.963Z,73.50
2018-05-17T20:35:37.556Z,73.50
2018-05-17T20:38:05.059Z,73.30
2018-05-17T20:40:32.626Z,73.90
2018-05-17T20:43:00.601Z,74.10
2018-05-17T20:45:28.222Z,74.10
2018-05-17T20:47:56.218Z,74.40
2018-05-17T20:50:23.722Z,74.40
2018-05-17T20:52:51.236Z,74.40
2018-05-17T20:55:18.756Z,74.60
2018-05-17T20:57:46.353Z,74.70
2018-05-17T21:00:14.323Z,74.90
2018-05-17T21:02:41.915Z,74.90
2018-05-17T21:05:09.398Z,75.00
2018-05-17T21:07:36.974Z,75.50
2018-05-17T21:10:04.463Z,75.60
2018-05-17T21:12:31.982Z,75.70
2018-05-17T21:14:59.523Z,75.70
2018-05-17T21:17:27.115Z,75.80
2018-05-17T21:19:54.616Z,75.90
2018-05-17T21:22:22.514Z,76.10
2018-05-17T21:24:50.406Z,76.00
2018-05-17T21:27:18.366Z,76.10
2018-05-17T21:29:45.821Z,76.10
2018-05-17T21:32:13.331Z,76.30
2018-05-17T21:34:40.836Z,76.60
2018-05-17T21:37:08.343Z,77.00
2018-05-17T21:39:35.842Z,77.00
2018-05-17T21:42:03.387Z,77.10
2018-05-17T21:44:31.284Z,77.20
2018-05-17T21:46:59.258Z,77.30
2018-05-17T21:49:26.749Z,77.30
2018-05-17T21:51:54.663Z,77.70
2018-05-17T21:54:22.542Z,77.40
2018-05-17T21:56:50.452Z,77.80
2018-05-17T21:59:22.886Z,77.80
2018-05-17T22:01:50.390Z,78.00
2018-05-17T22:04:17.879Z,78.30
2018-05-17T22:06:45.798Z,78.10
2018-05-17T22:09:13.690Z,78.30
2018-05-17T22:11:41.678Z,78.80
2018-05-17T22:14:09.566Z,79.00
2018-05-17T22:16:37.079Z,79.00
2018-05-17T22:19:04.622Z,79.10
2018-05-17T22:21:32.140Z,78.90
2018-05-17T22:23:59.700Z,79.40
2018-05-17T22:26:27.695Z,79.80
2018-05-17T22:28:55.704Z,80.00
2018-05-17T22:31:23.595Z,80.20
2018-05-17T22:33:51.508Z,80.20
2018-05-17T22:36:19.007Z,80.20
2018-05-17T22:38:46.523Z,80.30
2018-05-17T22:41:14.023Z,80.40
2018-05-17T22:43:41.540Z,80.50
2018-05-17T22:46:09.043Z,80.60
2018-05-17T22:48:36.562Z,80.80
2018-05-17T22:51:04.085Z,81.20
2018-05-17T22:53:31.662Z,81.20
2018-05-17T22:55:59.233Z,80.80
2018-05-17T22:58:30.762Z,81.40
2018-05-17T23:00:58.263Z,81.40
2018-05-17T23:03:25.783Z,81.80
2018-05-17T23:05:53.770Z,81.80
2018-05-17T23:08:21.763Z,82.00
2018-05-17T23:10:49.659Z,81.90
2018-05-17T23:13:17.576Z,82.00
2018-05-17T23:15:45.070Z,82.00
2018-05-17T23:18:12.592Z,82.40
2018-05-17T23:20:40.091Z,82.60
2018-05-17T23:23:07.614Z,82.50
2018-05-17T23:25:35.158Z,82.50
2018-05-17T23:28:02.755Z,82.40
2018-05-17T23:30:30.653Z,82.60
2018-05-17T23:32:58.572Z,82.80
2018-05-17T23:35:26.915Z,82.80
2018-05-17T23:37:54.426Z,82.90
2018-05-17T23:40:33.736Z,82.90
2018-05-17T23:43:01.267Z,83.10
2018-05-17T23:45:28.777Z,83.50
2018-05-17T23:47:56.305Z,83.60
2018-05-17T23:50:23.815Z,83.80
2018-05-17T23:52:51.315Z,83.90
2018-05-17T23:55:19.247Z,84.30
2018-05-17T23:57:46.756Z,84.30
